sensor_id;sensor_type;location;lat;lon;timestamp;temperature;humidity
51815;DHT22;37874;53.158;6.766;2022-08-19T00:27:37;25.00;49.80
51815;DHT22;37874;53.158;6.766;2022-08-19T00:30:05;25.00;49.60
51815;DHT22;37874;53.158;6.766;2022-08-19T00:32:31;25.00;49.60
51815;DHT22;37874;53.158;6.766;2022-08-19T00:34:58;25.00;49.70
51815;DHT22;37874;53.158;6.766;2022-08-19T00:37:24;25.00;49.70
51815;DHT22;37874;53.158;6.766;2022-08-19T00:39:51;25.00;49.80
51815;DHT22;37874;53.158;6.766;2022-08-19T00:42:18;25.00;49.70
51815;DHT22;37874;53.158;6.766;2022-08-19T00:44:44;24.90;49.80
51815;DHT22;37874;53.158;6.766;2022-08-19T00:47:10;25.00;49.70
51815;DHT22;37874;53.158;6.766;2022-08-19T00:49:55;24.90;49.60
51815;DHT22;37874;53.158;6.766;2022-08-19T00:52:32;25.00;49.80
51815;DHT22;37874;53.158;6.766;2022-08-19T00:55:00;24.90;49.80
51815;DHT22;37874;53.158;6.766;2022-08-19T00:57:29;24.80;49.80
51815;DHT22;37874;53.158;6.766;2022-08-19T00:59:57;24.90;49.80
51815;DHT22;37874;53.158;6.766;2022-08-19T01:02:24;24.90;49.90
51815;DHT22;37874;53.158;6.766;2022-08-19T01:04:50;24.90;49.80
51815;DHT22;37874;53.158;6.766;2022-08-19T01:07:15;24.80;49.60
51815;DHT22;37874;53.158;6.766;2022-08-19T01:09:42;24.80;49.60
51815;DHT22;37874;53.158;6.766;2022-08-19T01:12:08;24.80;49.70
51815;DHT22;37874;53.158;6.766;2022-08-19T01:14:34;24.80;49.80
51815;DHT22;37874;53.158;6.766;2022-08-19T01:17:02;24.70;49.80
51815;DHT22;37874;53.158;6.766;2022-08-19T01:19:31;24.70;49.60
51815;DHT22;37874;53.158;6.766;2022-08-19T01:22:06;24.70;49.70
51815;DHT22;37874;53.158;6.766;2022-08-19T01:24:34;24.80;49.70
51815;DHT22;37874;53.158;6.766;2022-08-19T01:27:04;24.70;49.50
51815;DHT22;37874;53.158;6.766;2022-08-19T01:29:30;24.70;49.40
51815;DHT22;37874;53.158;6.766;2022-08-19T01:31:55;24.70;49.30
51815;DHT22;37874;53.158;6.766;2022-08-19T01:34:21;24.70;49.20
51815;DHT22;37874;53.158;6.766;2022-08-19T01:36:47;24.70;49.30
51815;DHT22;37874;53.158;6.766;2022-08-19T01:39:17;24.60;49.40
51815;DHT22;37874;53.158;6.766;2022-08-19T01:41:44;24.60;49.50
51815;DHT22;37874;53.158;6.766;2022-08-19T01:44:10;24.70;49.60
51815;DHT22;37874;53.158;6.766;2022-08-19T01:46:36;24.60;49.60
51815;DHT22;37874;53.158;6.766;2022-08-19T01:49:03;24.60;49.40
51815;DHT22;37874;53.158;6.766;2022-08-19T01:51:30;24.60;49.40
51815;DHT22;37874;53.158;6.766;2022-08-19T01:53:57;24.60;49.50
51815;DHT22;37874;53.158;6.766;2022-08-19T01:56:24;24.60;49.60
51815;DHT22;37874;53.158;6.766;2022-08-19T01:58:56;24.60;49.60
51815;DHT22;37874;53.158;6.766;2022-08-19T02:01:23;24.60;49.60
51815;DHT22;37874;53.158;6.766;2022-08-19T02:03:49;24.50;49.30
51815;DHT22;37874;53.158;6.766;2022-08-19T02:06:14;24.50;49.50
51815;DHT22;37874;53.158;6.766;2022-08-19T02:08:42;24.50;49.50
51815;DHT22;37874;53.158;6.766;2022-08-19T02:11:19;24.50;49.10
51815;DHT22;37874;53.158;6.766;2022-08-19T02:13:45;24.50;49.50
51815;DHT22;37874;53.158;6.766;2022-08-19T02:16:10;24.40;49.60
51815;DHT22;37874;53.158;6.766;2022-08-19T02:18:36;24.50;49.50
51815;DHT22;37874;53.158;6.766;2022-08-19T02:21:02;24.40;49.20
51815;DHT22;37874;53.158;6.766;2022-08-19T02:23:28;24.40;49.60
51815;DHT22;37874;53.158;6.766;2022-08-19T02:25:53;24.40;49.50
51815;DHT22;37874;53.158;6.766;2022-08-19T02:28:19;24.40;49.40
51815;DHT22;37874;53.158;6.766;2022-08-19T02:30:46;24.40;49.30
51815;DHT22;37874;53.158;6.766;2022-08-19T02:33:12;24.40;49.30
51815;DHT22;37874;53.158;6.766;2022-08-19T02:35:42;24.30;49.20
51815;DHT22;37874;53.158;6.766;2022-08-19T02:38:08;24.30;49.20
51815;DHT22;37874;53.158;6.766;2022-08-19T02:40:58;24.30;49.40
51815;DHT22;37874;53.158;6.766;2022-08-19T02:43:25;24.30;49.80
51815;DHT22;37874;53.158;6.766;2022-08-19T02:45:51;24.30;49.80
51815;DHT22;37874;53.158;6.766;2022-08-19T02:48:19;24.30;49.60
51815;DHT22;37874;53.158;6.766;2022-08-19T02:50:46;24.40;49.70
51815;DHT22;37874;53.158;6.766;2022-08-19T02:53:12;24.40;49.80
51815;DHT22;37874;53.158;6.766;2022-08-19T02:55:45;24.40;49.90
51815;DHT22;37874;53.158;6.766;2022-08-19T02:58:12;24.40;49.80
51815;DHT22;37874;53.158;6.766;2022-08-19T03:00:53;24.40;49.80
51815;DHT22;37874;53.158;6.766;2022-08-19T03:03:19;24.40;49.70
51815;DHT22;37874;53.158;6.766;2022-08-19T03:05:46;24.40;49.70
51815;DHT22;37874;53.158;6.766;2022-08-19T03:08:13;24.40;49.70
51815;DHT22;37874;53.158;6.766;2022-08-19T03:10:46;24.40;49.80
51815;DHT22;37874;53.158;6.766;2022-08-19T03:13:17;24.40;49.60
51815;DHT22;37874;53.158;6.766;2022-08-19T03:15:45;24.40;49.80
51815;DHT22;37874;53.158;6.766;2022-08-19T03:18:12;24.40;49.80
51815;DHT22;37874;53.158;6.766;2022-08-19T03:20:51;24.40;49.70
51815;DHT22;37874;53.158;6.766;2022-08-19T03:23:19;24.30;49.80
51815;DHT22;37874;53.158;6.766;2022-08-19T03:25:48;24.30;49.80
51815;DHT22;37874;53.158;6.766;2022-08-19T03:28:15;24.30;49.80
51815;DHT22;37874;53.158;6.766;2022-08-19T03:30:42;24.30;49.80
51815;DHT22;37874;53.158;6.766;2022-08-19T03:33:10;24.30;49.70
51815;DHT22;37874;53.158;6.766;2022-08-19T03:35:37;24.40;50.10
51815;DHT22;37874;53.158;6.766;2022-08-19T03:38:05;24.40;50.00
51815;DHT22;37874;53.158;6.766;2022-08-19T03:40:32;24.40;49.60
51815;DHT22;37874;53.158;6.766;2022-08-19T03:43:01;24.30;49.50
51815;DHT22;37874;53.158;6.766;2022-08-19T03:45:27;24.30;49.60
51815;DHT22;37874;53.158;6.766;2022-08-19T03:47:53;24.10;49.30
51815;DHT22;37874;53.158;6.766;2022-08-19T03:50:19;24.30;49.40
51815;DHT22;37874;53.158;6.766;2022-08-19T03:52:49;24.30;49.60
51815;DHT22;37874;53.158;6.766;2022-08-19T03:55:16;24.20;49.70
51815;DHT22;37874;53.158;6.766;2022-08-19T03:57:41;24.20;49.40
51815;DHT22;37874;53.158;6.766;2022-08-19T04:00:08;24.20;49.30
51815;DHT22;37874;53.158;6.766;2022-08-19T04:02:34;23.60;49.40
51815;DHT22;37874;53.158;6.766;2022-08-19T04:05:00;24.20;49.80
51815;DHT22;37874;53.158;6.766;2022-08-19T04:07:26;24.20;49.60
51815;DHT22;37874;53.158;6.766;2022-08-19T04:09:51;24.20;49.60
51815;DHT22;37874;53.158;6.766;2022-08-19T04:12:18;24.20;49.70
51815;DHT22;37874;53.158;6.766;2022-08-19T04:14:46;24.20;49.70
51815;DHT22;37874;53.158;6.766;2022-08-19T04:17:12;24.20;49.60
51815;DHT22;37874;53.158;6.766;2022-08-19T04:19:39;24.20;49.50
51815;DHT22;37874;53.158;6.766;2022-08-19T04:22:05;24.10;49.40
51815;DHT22;37874;53.158;6.766;2022-08-19T04:24:33;24.10;49.50
51815;DHT22;37874;53.158;6.766;2022-08-19T04:27:00;24.10;49.40
51815;DHT22;37874;53.158;6.766;2022-08-19T04:29:26;24.10;49.30
51815;DHT22;37874;53.158;6.766;2022-08-19T04:31:54;24.10;49.90
51815;DHT22;37874;53.158;6.766;2022-08-19T04:34:21;24.00;49.60
51815;DHT22;37874;53.158;6.766;2022-08-19T04:36:48;24.00;49.20
51815;DHT22;37874;53.158;6.766;2022-08-19T04:39:18;24.00;49.30
51815;DHT22;37874;53.158;6.766;2022-08-19T04:41:45;24.00;49.40
51815;DHT22;37874;53.158;6.766;2022-08-19T04:44:34;24.00;49.20
51815;DHT22;37874;53.158;6.766;2022-08-19T04:47:00;24.00;49.30
51815;DHT22;37874;53.158;6.766;2022-08-19T04:49:26;24.00;49.30
51815;DHT22;37874;53.158;6.766;2022-08-19T04:51:53;24.00;49.30
51815;DHT22;37874;53.158;6.766;2022-08-19T04:54:21;24.00;49.60
51815;DHT22;37874;53.158;6.766;2022-08-19T04:56:49;24.00;49.60
51815;DHT22;37874;53.158;6.766;2022-08-19T04:59:16;23.90;49.30
51815;DHT22;37874;53.158;6.766;2022-08-19T05:01:44;23.90;49.40
51815;DHT22;37874;53.158;6.766;2022-08-19T05:04:13;23.90;49.50
51815;DHT22;37874;53.158;6.766;2022-08-19T05:06:39;23.90;49.70
51815;DHT22;37874;53.158;6.766;2022-08-19T05:09:05;23.90;49.70
51815;DHT22;37874;53.158;6.766;2022-08-19T05:11:35;23.90;49.80
51815;DHT22;37874;53.158;6.766;2022-08-19T05:14:03;24.00;50.30
51815;DHT22;37874;53.158;6.766;2022-08-19T05:16:29;24.00;50.80
51815;DHT22;37874;53.158;6.766;2022-08-19T05:18:55;24.10;50.90
51815;DHT22;37874;53.158;6.766;2022-08-19T05:21:41;24.10;51.10
51815;DHT22;37874;53.158;6.766;2022-08-19T05:24:26;24.20;51.20
51815;DHT22;37874;53.158;6.766;2022-08-19T05:26:53;24.30;51.30
51815;DHT22;37874;53.158;6.766;2022-08-19T05:29:24;24.40;51.30
51815;DHT22;37874;53.158;6.766;2022-08-19T05:31:50;24.40;51.20
51815;DHT22;37874;53.158;6.766;2022-08-19T05:34:18;24.50;51.20
51815;DHT22;37874;53.158;6.766;2022-08-19T05:36:45;24.50;51.20
51815;DHT22;37874;53.158;6.766;2022-08-19T05:39:14;24.60;51.30
51815;DHT22;37874;53.158;6.766;2022-08-19T05:41:46;24.70;51.40
51815;DHT22;37874;53.158;6.766;2022-08-19T05:44:13;24.70;51.50
51815;DHT22;37874;53.158;6.766;2022-08-19T05:46:39;24.70;51.70
51815;DHT22;37874;53.158;6.766;2022-08-19T05:49:06;24.80;51.80
51815;DHT22;37874;53.158;6.766;2022-08-19T05:51:34;24.80;51.70
51815;DHT22;37874;53.158;6.766;2022-08-19T05:54:05;24.90;51.80
51815;DHT22;37874;53.158;6.766;2022-08-19T05:56:32;24.90;51.80
51815;DHT22;37874;53.158;6.766;2022-08-19T05:59:00;24.90;52.00
51815;DHT22;37874;53.158;6.766;2022-08-19T06:01:26;25.00;52.00
51815;DHT22;37874;53.158;6.766;2022-08-19T06:03:52;25.00;52.10
51815;DHT22;37874;53.158;6.766;2022-08-19T06:06:18;25.10;52.30
51815;DHT22;37874;53.158;6.766;2022-08-19T06:08:44;25.10;52.30
51815;DHT22;37874;53.158;6.766;2022-08-19T06:11:33;25.10;52.30
51815;DHT22;37874;53.158;6.766;2022-08-19T06:14:08;25.20;52.50
51815;DHT22;37874;53.158;6.766;2022-08-19T06:16:35;25.30;52.50
51815;DHT22;37874;53.158;6.766;2022-08-19T06:19:05;25.30;52.60
51815;DHT22;37874;53.158;6.766;2022-08-19T06:21:33;25.30;52.70
51815;DHT22;37874;53.158;6.766;2022-08-19T06:23:59;25.40;52.90
51815;DHT22;37874;53.158;6.766;2022-08-19T06:26:26;25.40;53.10
51815;DHT22;37874;53.158;6.766;2022-08-19T06:28:52;25.40;53.10
51815;DHT22;37874;53.158;6.766;2022-08-19T06:31:20;25.50;53.20
51815;DHT22;37874;53.158;6.766;2022-08-19T06:33:48;25.40;53.10
51815;DHT22;37874;53.158;6.766;2022-08-19T06:36:26;25.40;53.10
51815;DHT22;37874;53.158;6.766;2022-08-19T06:39:06;25.60;53.20
51815;DHT22;37874;53.158;6.766;2022-08-19T06:41:35;25.60;53.30
51815;DHT22;37874;53.158;6.766;2022-08-19T06:44:02;25.60;53.30
51815;DHT22;37874;53.158;6.766;2022-08-19T06:46:27;25.60;53.20
51815;DHT22;37874;53.158;6.766;2022-08-19T06:48:54;25.80;53.10
51815;DHT22;37874;53.158;6.766;2022-08-19T06:51:21;25.70;53.10
51815;DHT22;37874;53.158;6.766;2022-08-19T06:53:51;25.60;52.90
51815;DHT22;37874;53.158;6.766;2022-08-19T06:56:20;25.70;53.70
51815;DHT22;37874;53.158;6.766;2022-08-19T06:58:47;25.70;53.40
51815;DHT22;37874;53.158;6.766;2022-08-19T07:01:17;25.70;53.50
51815;DHT22;37874;53.158;6.766;2022-08-19T07:03:42;25.80;53.60
51815;DHT22;37874;53.158;6.766;2022-08-19T07:06:11;25.80;53.70
51815;DHT22;37874;53.158;6.766;2022-08-19T07:08:38;25.90;53.80
51815;DHT22;37874;53.158;6.766;2022-08-19T07:11:11;25.90;53.80
51815;DHT22;37874;53.158;6.766;2022-08-19T07:13:39;26.00;53.80
51815;DHT22;37874;53.158;6.766;2022-08-19T07:16:13;26.00;53.90
51815;DHT22;37874;53.158;6.766;2022-08-19T07:18:39;26.10;53.60
51815;DHT22;37874;53.158;6.766;2022-08-19T07:21:07;26.00;53.40
51815;DHT22;37874;53.158;6.766;2022-08-19T07:23:33;26.20;53.50
51815;DHT22;37874;53.158;6.766;2022-08-19T07:26:05;26.20;53.40
51815;DHT22;37874;53.158;6.766;2022-08-19T07:28:31;26.20;53.30
51815;DHT22;37874;53.158;6.766;2022-08-19T07:30:57;26.30;53.40
51815;DHT22;37874;53.158;6.766;2022-08-19T07:33:22;26.50;53.60
51815;DHT22;37874;53.158;6.766;2022-08-19T07:35:48;26.40;53.50
51815;DHT22;37874;53.158;6.766;2022-08-19T07:38:15;26.50;53.70
51815;DHT22;37874;53.158;6.766;2022-08-19T07:40:41;26.50;53.60
51815;DHT22;37874;53.158;6.766;2022-08-19T07:43:09;26.50;53.70
51815;DHT22;37874;53.158;6.766;2022-08-19T07:45:34;26.60;54.20
51815;DHT22;37874;53.158;6.766;2022-08-19T07:48:00;26.60;54.40
51815;DHT22;37874;53.158;6.766;2022-08-19T07:50:26;26.50;54.20
51815;DHT22;37874;53.158;6.766;2022-08-19T07:52:52;26.60;54.60
51815;DHT22;37874;53.158;6.766;2022-08-19T07:55:22;26.60;54.60
51815;DHT22;37874;53.158;6.766;2022-08-19T07:57:48;26.60;54.90
51815;DHT22;37874;53.158;6.766;2022-08-19T08:00:14;26.60;54.90
51815;DHT22;37874;53.158;6.766;2022-08-19T08:02:40;26.60;54.70
51815;DHT22;37874;53.158;6.766;2022-08-19T08:05:08;26.60;54.80
51815;DHT22;37874;53.158;6.766;2022-08-19T08:07:53;26.60;54.70
51815;DHT22;37874;53.158;6.766;2022-08-19T08:10:37;26.70;55.10
51815;DHT22;37874;53.158;6.766;2022-08-19T08:13:03;26.70;54.80
51815;DHT22;37874;53.158;6.766;2022-08-19T08:15:30;26.70;54.30
51815;DHT22;37874;53.158;6.766;2022-08-19T08:17:56;26.70;54.40
51815;DHT22;37874;53.158;6.766;2022-08-19T08:20:23;26.70;54.30
51815;DHT22;37874;53.158;6.766;2022-08-19T08:22:49;26.80;54.50
51815;DHT22;37874;53.158;6.766;2022-08-19T08:25:34;26.80;54.30
51815;DHT22;37874;53.158;6.766;2022-08-19T08:28:01;26.90;53.90
51815;DHT22;37874;53.158;6.766;2022-08-19T08:30:29;26.80;53.90
51815;DHT22;37874;53.158;6.766;2022-08-19T08:32:55;26.90;53.90
51815;DHT22;37874;53.158;6.766;2022-08-19T08:35:22;26.90;54.20
51815;DHT22;37874;53.158;6.766;2022-08-19T08:37:50;27.00;54.30
51815;DHT22;37874;53.158;6.766;2022-08-19T08:40:34;27.00;54.10
51815;DHT22;37874;53.158;6.766;2022-08-19T08:46:04;27.10;52.90
51815;DHT22;37874;53.158;6.766;2022-08-19T08:49:11;27.10;52.70
51815;DHT22;37874;53.158;6.766;2022-08-19T08:51:45;27.20;52.90
51815;DHT22;37874;53.158;6.766;2022-08-19T08:54:14;27.20;52.90
51815;DHT22;37874;53.158;6.766;2022-08-19T08:56:44;27.30;52.70
51815;DHT22;37874;53.158;6.766;2022-08-19T08:59:23;27.30;52.60
51815;DHT22;37874;53.158;6.766;2022-08-19T09:01:51;27.40;51.40
51815;DHT22;37874;53.158;6.766;2022-08-19T09:04:17;27.40;51.30
51815;DHT22;37874;53.158;6.766;2022-08-19T09:09:34;27.40;51.30
51815;DHT22;37874;53.158;6.766;2022-08-19T09:14:53;27.60;51.00
51815;DHT22;37874;53.158;6.766;2022-08-19T09:17:23;27.70;50.40
51815;DHT22;37874;53.158;6.766;2022-08-19T09:20:18;27.70;50.20
51815;DHT22;37874;53.158;6.766;2022-08-19T09:22:44;27.80;50.40
51815;DHT22;37874;53.158;6.766;2022-08-19T09:25:12;27.80;50.20
51815;DHT22;37874;53.158;6.766;2022-08-19T09:27:39;27.90;50.50
51815;DHT22;37874;53.158;6.766;2022-08-19T09:30:06;28.00;49.60
51815;DHT22;37874;53.158;6.766;2022-08-19T09:32:32;28.00;50.20
51815;DHT22;37874;53.158;6.766;2022-08-19T09:34:58;28.10;49.90
51815;DHT22;37874;53.158;6.766;2022-08-19T09:37:26;28.20;49.30
51815;DHT22;37874;53.158;6.766;2022-08-19T09:39:52;28.10;49.20
51815;DHT22;37874;53.158;6.766;2022-08-19T09:42:18;28.20;48.60
51815;DHT22;37874;53.158;6.766;2022-08-19T09:44:44;28.20;48.80
51815;DHT22;37874;53.158;6.766;2022-08-19T09:47:12;28.20;49.80
51815;DHT22;37874;53.158;6.766;2022-08-19T09:49:38;28.20;49.50
51815;DHT22;37874;53.158;6.766;2022-08-19T09:52:05;28.30;48.80
51815;DHT22;37874;53.158;6.766;2022-08-19T09:54:31;28.40;48.40
51815;DHT22;37874;53.158;6.766;2022-08-19T09:57:00;28.50;47.70
51815;DHT22;37874;53.158;6.766;2022-08-19T09:59:27;28.50;48.00
51815;DHT22;37874;53.158;6.766;2022-08-19T10:01:52;28.50;47.00
51815;DHT22;37874;53.158;6.766;2022-08-19T10:04:19;28.50;47.10
51815;DHT22;37874;53.158;6.766;2022-08-19T10:06:46;28.60;47.30
51815;DHT22;37874;53.158;6.766;2022-08-19T10:09:14;28.70;47.40
51815;DHT22;37874;53.158;6.766;2022-08-19T10:11:41;28.80;46.80
51815;DHT22;37874;53.158;6.766;2022-08-19T10:14:07;28.80;46.20
51815;DHT22;37874;53.158;6.766;2022-08-19T10:16:35;28.90;45.80
51815;DHT22;37874;53.158;6.766;2022-08-19T10:19:01;28.90;45.40
51815;DHT22;37874;53.158;6.766;2022-08-19T10:21:32;29.00;45.00
51815;DHT22;37874;53.158;6.766;2022-08-19T10:24:01;28.90;44.70
51815;DHT22;37874;53.158;6.766;2022-08-19T10:26:32;29.10;44.70
51815;DHT22;37874;53.158;6.766;2022-08-19T10:28:57;29.20;44.40
51815;DHT22;37874;53.158;6.766;2022-08-19T10:31:29;29.20;45.10
51815;DHT22;37874;53.158;6.766;2022-08-19T10:33:56;29.20;44.20
51815;DHT22;37874;53.158;6.766;2022-08-19T10:36:34;29.20;44.20
51815;DHT22;37874;53.158;6.766;2022-08-19T10:39:04;29.30;45.20
51815;DHT22;37874;53.158;6.766;2022-08-19T10:41:33;29.30;43.90
51815;DHT22;37874;53.158;6.766;2022-08-19T10:44:06;29.40;44.50
51815;DHT22;37874;53.158;6.766;2022-08-19T10:46:34;29.40;44.40
51815;DHT22;37874;53.158;6.766;2022-08-19T10:49:02;29.50;44.70
51815;DHT22;37874;53.158;6.766;2022-08-19T10:51:28;29.60;44.50
51815;DHT22;37874;53.158;6.766;2022-08-19T10:54:12;29.60;44.00
51815;DHT22;37874;53.158;6.766;2022-08-19T10:56:38;29.60;43.60
51815;DHT22;37874;53.158;6.766;2022-08-19T10:59:24;29.70;43.90
51815;DHT22;37874;53.158;6.766;2022-08-19T11:01:53;29.80;44.30
51815;DHT22;37874;53.158;6.766;2022-08-19T11:04:20;29.70;43.60
51815;DHT22;37874;53.158;6.766;2022-08-19T11:06:47;29.90;44.20
51815;DHT22;37874;53.158;6.766;2022-08-19T11:09:31;30.00;43.80
51815;DHT22;37874;53.158;6.766;2022-08-19T11:11:57;30.00;43.70
51815;DHT22;37874;53.158;6.766;2022-08-19T11:14:23;30.00;43.50
51815;DHT22;37874;53.158;6.766;2022-08-19T11:16:50;30.00;43.30
51815;DHT22;37874;53.158;6.766;2022-08-19T11:19:17;30.00;43.00
51815;DHT22;37874;53.158;6.766;2022-08-19T11:21:47;30.00;44.50
51815;DHT22;37874;53.158;6.766;2022-08-19T11:24:18;30.00;44.30
51815;DHT22;37874;53.158;6.766;2022-08-19T11:26:46;30.10;44.30
51815;DHT22;37874;53.158;6.766;2022-08-19T11:29:13;30.20;43.90
51815;DHT22;37874;53.158;6.766;2022-08-19T11:31:41;30.20;43.50
51815;DHT22;37874;53.158;6.766;2022-08-19T11:34:10;30.30;43.60
51815;DHT22;37874;53.158;6.766;2022-08-19T11:36:38;30.40;43.50
51815;DHT22;37874;53.158;6.766;2022-08-19T11:39:06;30.40;43.30
51815;DHT22;37874;53.158;6.766;2022-08-19T11:41:32;30.40;43.40
51815;DHT22;37874;53.158;6.766;2022-08-19T11:43:58;30.40;42.70
51815;DHT22;37874;53.158;6.766;2022-08-19T11:46:24;30.30;43.00
51815;DHT22;37874;53.158;6.766;2022-08-19T11:48:50;30.20;43.50
51815;DHT22;37874;53.158;6.766;2022-08-19T11:51:20;30.20;43.00
51815;DHT22;37874;53.158;6.766;2022-08-19T11:53:47;30.10;42.90
51815;DHT22;37874;53.158;6.766;2022-08-19T11:56:13;30.10;43.20
51815;DHT22;37874;53.158;6.766;2022-08-19T11:58:39;30.00;43.20
51815;DHT22;37874;53.158;6.766;2022-08-19T12:01:12;30.00;43.70
51815;DHT22;37874;53.158;6.766;2022-08-19T12:03:39;30.00;44.10
51815;DHT22;37874;53.158;6.766;2022-08-19T12:06:09;30.00;43.50
51815;DHT22;37874;53.158;6.766;2022-08-19T12:08:35;30.00;43.30
51815;DHT22;37874;53.158;6.766;2022-08-19T12:11:01;30.10;44.10
51815;DHT22;37874;53.158;6.766;2022-08-19T12:13:30;30.10;43.50
51815;DHT22;37874;53.158;6.766;2022-08-19T12:15:56;30.10;43.60
51815;DHT22;37874;53.158;6.766;2022-08-19T12:18:23;30.10;43.60
51815;DHT22;37874;53.158;6.766;2022-08-19T12:20:51;30.10;43.90
51815;DHT22;37874;53.158;6.766;2022-08-19T12:23:17;30.30;43.60
51815;DHT22;37874;53.158;6.766;2022-08-19T12:25:45;30.40;43.20
51815;DHT22;37874;53.158;6.766;2022-08-19T12:28:22;30.50;42.80
51815;DHT22;37874;53.158;6.766;2022-08-19T12:30:49;30.50;42.40
51815;DHT22;37874;53.158;6.766;2022-08-19T12:33:19;30.40;42.30
51815;DHT22;37874;53.158;6.766;2022-08-19T12:35:48;30.40;42.70
51815;DHT22;37874;53.158;6.766;2022-08-19T12:38:14;30.30;42.50
51815;DHT22;37874;53.158;6.766;2022-08-19T12:40:40;30.40;42.70
51815;DHT22;37874;53.158;6.766;2022-08-19T12:43:09;30.40;41.80
51815;DHT22;37874;53.158;6.766;2022-08-19T12:45:37;30.40;42.40
51815;DHT22;37874;53.158;6.766;2022-08-19T12:48:03;30.30;42.80
51815;DHT22;37874;53.158;6.766;2022-08-19T12:50:30;30.10;43.60
51815;DHT22;37874;53.158;6.766;2022-08-19T12:52:56;30.00;44.10
51815;DHT22;37874;53.158;6.766;2022-08-19T12:55:22;29.80;44.80
51815;DHT22;37874;53.158;6.766;2022-08-19T12:57:48;29.60;44.40
51815;DHT22;37874;53.158;6.766;2022-08-19T13:00:19;29.50;44.30
51815;DHT22;37874;53.158;6.766;2022-08-19T13:02:49;29.40;44.10
51815;DHT22;37874;53.158;6.766;2022-08-19T13:05:18;29.30;44.90
51815;DHT22;37874;53.158;6.766;2022-08-19T13:07:49;29.30;46.00
51815;DHT22;37874;53.158;6.766;2022-08-19T13:10:17;29.40;45.30
51815;DHT22;37874;53.158;6.766;2022-08-19T13:12:45;29.40;45.70
51815;DHT22;37874;53.158;6.766;2022-08-19T13:15:12;29.30;45.60
51815;DHT22;37874;53.158;6.766;2022-08-19T13:17:38;29.30;46.00
51815;DHT22;37874;53.158;6.766;2022-08-19T13:20:05;29.20;46.00
51815;DHT22;37874;53.158;6.766;2022-08-19T13:22:33;29.20;45.60
51815;DHT22;37874;53.158;6.766;2022-08-19T13:24:58;29.20;45.90
51815;DHT22;37874;53.158;6.766;2022-08-19T13:27:24;29.30;45.20
51815;DHT22;37874;53.158;6.766;2022-08-19T13:29:50;29.30;45.10
51815;DHT22;37874;53.158;6.766;2022-08-19T13:32:34;29.20;45.30
51815;DHT22;37874;53.158;6.766;2022-08-19T13:35:18;29.20;45.40
51815;DHT22;37874;53.158;6.766;2022-08-19T13:37:44;29.20;45.50
51815;DHT22;37874;53.158;6.766;2022-08-19T13:40:17;29.20;45.40
51815;DHT22;37874;53.158;6.766;2022-08-19T13:42:45;29.20;45.10
51815;DHT22;37874;53.158;6.766;2022-08-19T13:45:14;29.20;45.20
51815;DHT22;37874;53.158;6.766;2022-08-19T13:47:40;29.20;45.60
51815;DHT22;37874;53.158;6.766;2022-08-19T13:50:14;29.20;45.60
51815;DHT22;37874;53.158;6.766;2022-08-19T13:52:41;29.20;45.70
51815;DHT22;37874;53.158;6.766;2022-08-19T13:55:08;29.30;45.50
51815;DHT22;37874;53.158;6.766;2022-08-19T13:57:34;29.30;45.20
51815;DHT22;37874;53.158;6.766;2022-08-19T14:00:01;29.30;46.00
51815;DHT22;37874;53.158;6.766;2022-08-19T14:02:27;29.30;46.50
51815;DHT22;37874;53.158;6.766;2022-08-19T14:04:53;29.30;47.10
51815;DHT22;37874;53.158;6.766;2022-08-19T14:07:19;29.30;47.70
51815;DHT22;37874;53.158;6.766;2022-08-19T14:09:45;29.20;47.80
51815;DHT22;37874;53.158;6.766;2022-08-19T14:12:10;29.20;48.00
51815;DHT22;37874;53.158;6.766;2022-08-19T14:14:37;29.20;48.20
51815;DHT22;37874;53.158;6.766;2022-08-19T14:17:06;29.20;48.60
51815;DHT22;37874;53.158;6.766;2022-08-19T14:19:32;29.20;48.50
51815;DHT22;37874;53.158;6.766;2022-08-19T14:21:58;29.10;48.50
51815;DHT22;37874;53.158;6.766;2022-08-19T14:24:24;29.10;48.50
51815;DHT22;37874;53.158;6.766;2022-08-19T14:26:49;29.00;48.50
51815;DHT22;37874;53.158;6.766;2022-08-19T14:29:15;29.00;48.30
51815;DHT22;37874;53.158;6.766;2022-08-19T14:31:41;29.00;48.30
51815;DHT22;37874;53.158;6.766;2022-08-19T14:34:09;28.90;48.20
51815;DHT22;37874;53.158;6.766;2022-08-19T14:36:36;28.90;48.10
51815;DHT22;37874;53.158;6.766;2022-08-19T14:39:03;28.80;48.00
51815;DHT22;37874;53.158;6.766;2022-08-19T14:41:29;28.80;48.20
51815;DHT22;37874;53.158;6.766;2022-08-19T14:43:56;28.80;49.00
51815;DHT22;37874;53.158;6.766;2022-08-19T14:46:25;28.80;47.90
51815;DHT22;37874;53.158;6.766;2022-08-19T14:48:51;28.70;48.20
51815;DHT22;37874;53.158;6.766;2022-08-19T14:51:18;28.70;48.20
51815;DHT22;37874;53.158;6.766;2022-08-19T14:53:44;28.70;48.20
51815;DHT22;37874;53.158;6.766;2022-08-19T14:56:12;28.70;48.20
51815;DHT22;37874;53.158;6.766;2022-08-19T14:58:42;28.70;48.40
51815;DHT22;37874;53.158;6.766;2022-08-19T15:01:09;28.70;48.50
51815;DHT22;37874;53.158;6.766;2022-08-19T15:03:35;28.60;48.60
51815;DHT22;37874;53.158;6.766;2022-08-19T15:06:03;28.60;48.80
51815;DHT22;37874;53.158;6.766;2022-08-19T15:08:31;28.60;48.50
51815;DHT22;37874;53.158;6.766;2022-08-19T15:10:58;28.60;48.80
51815;DHT22;37874;53.158;6.766;2022-08-19T15:13:25;28.50;49.00
51815;DHT22;37874;53.158;6.766;2022-08-19T15:15:52;28.50;48.70
51815;DHT22;37874;53.158;6.766;2022-08-19T15:18:18;28.50;48.60
51815;DHT22;37874;53.158;6.766;2022-08-19T15:20:46;28.50;48.70
51815;DHT22;37874;53.158;6.766;2022-08-19T15:23:13;28.40;48.80
51815;DHT22;37874;53.158;6.766;2022-08-19T15:25:39;28.40;49.00
51815;DHT22;37874;53.158;6.766;2022-08-19T15:28:07;28.40;49.30
51815;DHT22;37874;53.158;6.766;2022-08-19T15:30:38;28.10;49.10
51815;DHT22;37874;53.158;6.766;2022-08-19T15:33:04;28.30;49.40
51815;DHT22;37874;53.158;6.766;2022-08-19T15:35:30;28.30;49.50
51815;DHT22;37874;53.158;6.766;2022-08-19T15:37:56;28.30;49.60
51815;DHT22;37874;53.158;6.766;2022-08-19T15:40:23;28.30;49.80
51815;DHT22;37874;53.158;6.766;2022-08-19T15:42:50;28.30;49.80
51815;DHT22;37874;53.158;6.766;2022-08-19T15:45:17;28.30;49.90
51815;DHT22;37874;53.158;6.766;2022-08-19T15:47:43;28.30;49.90
51815;DHT22;37874;53.158;6.766;2022-08-19T15:50:12;28.30;50.20
51815;DHT22;37874;53.158;6.766;2022-08-19T15:52:50;28.40;50.20
51815;DHT22;37874;53.158;6.766;2022-08-19T15:55:25;28.40;50.40
51815;DHT22;37874;53.158;6.766;2022-08-19T15:57:51;28.40;50.50
51815;DHT22;37874;53.158;6.766;2022-08-19T16:00:36;28.40;50.70
51815;DHT22;37874;53.158;6.766;2022-08-19T16:03:20;28.40;51.20
51815;DHT22;37874;53.158;6.766;2022-08-19T16:06:04;28.40;51.20
51815;DHT22;37874;53.158;6.766;2022-08-19T16:08:48;28.40;51.00
51815;DHT22;37874;53.158;6.766;2022-08-19T16:11:17;28.40;50.30
51815;DHT22;37874;53.158;6.766;2022-08-19T16:13:51;28.50;50.30